Time;durP1;ratioP1;P1;durP2;ratioP2;P2;SDS_P1;SDS_P2;PMS_P1;PMS_P2;Temp;Humidity;BMP_temperature;BMP_pressure;BME280_temperature;BME280_humidity;BME280_pressure;Samples;Min_cycle;Max_cycle;Signal;HPM_P1;HPM_P2
2022/08/29 00:01:01;;;;;;;10.60;5.90;;;;;;;16.60;72.08;98580.80;104929;1271;76327;-24
2022/08/29 00:03:31;;;;;;;9.70;4.10;;;;;;;16.39;72.62;98581.02;105045;1271;74770;-24
2022/08/29 00:05:58;;;;;;;7.20;4.00;;;;;;;16.78;72.76;98585.74;105114;1271;62057;-24
2022/08/29 00:08:25;;;;;;;8.70;4.60;;;;;;;17.27;71.40;98580.96;105072;1270;62747;-24
2022/08/29 00:10:52;;;;;;;8.80;5.60;;;;;;;17.34;70.62;98581.64;104785;1271;76472;-24
2022/08/29 00:13:20;;;;;;;9.40;5.00;;;;;;;17.16;70.78;98584.70;104851;1271;75576;-24
2022/08/29 00:15:48;;;;;;;9.70;5.50;;;;;;;16.93;70.60;98585.29;104884;1271;74764;-24
2022/08/29 00:18:16;;;;;;;7.80;5.60;;;;;;;16.70;71.03;98583.08;104970;1272;61151;-24
2022/08/29 00:20:43;;;;;;;9.10;6.30;;;;;;;16.49;71.33;98585.86;105156;1271;61984;-24
2022/08/29 00:23:11;;;;;;;7.30;4.30;;;;;;;16.34;72.18;98587.17;105223;1271;76555;-24
2022/08/29 00:25:38;;;;;;;10.10;4.20;;;;;;;16.72;72.59;98591.60;105114;1271;77305;-24
2022/08/29 00:28:05;;;;;;;10.40;4.80;;;;;;;17.18;71.38;98593.02;105092;1271;75272;-24
2022/08/29 00:30:33;;;;;;;8.80;5.00;;;;;;;17.18;71.44;98595.48;105096;1271;63036;-24
2022/08/29 00:33:00;;;;;;;7.80;4.70;;;;;;;16.97;71.60;98593.92;104836;1271;63215;-24
2022/08/29 00:35:33;;;;;;;10.80;5.20;;;;;;;16.68;72.01;98595.59;104732;1271;76671;-25
2022/08/29 00:38:00;;;;;;;8.70;5.40;;;;;;;16.38;72.84;98597.95;104863;1271;76725;-24
2022/08/29 00:40:31;;;;;;;8.30;4.20;;;;;;;16.13;73.57;98601.04;105006;1271;74136;-24
2022/08/29 00:42:58;;;;;;;9.40;4.10;;;;;;;16.50;74.04;98604.12;104817;1271;62892;-24
2022/08/29 00:45:26;;;;;;;7.80;4.40;;;;;;;16.97;72.81;98605.66;104817;1271;61055;-24
2022/08/29 00:47:59;;;;;;;7.80;5.20;;;;;;;17.03;72.27;98607.27;104835;1272;76339;-25
2022/08/29 00:50:37;;;;;;;10.00;5.20;;;;;;;16.86;71.83;98603.05;104824;1271;76942;-24
2022/08/29 00:53:06;;;;;;;7.40;5.90;;;;;;;16.60;72.15;98602.24;104816;1271;73372;-24
2022/08/29 00:55:34;;;;;;;9.00;5.80;;;;;;;16.36;73.09;98601.77;105019;1271;62036;-24
2022/08/29 00:58:05;;;;;;;7.50;4.50;;;;;;;16.13;73.80;98598.74;105198;1270;61140;-24
2022/08/29 01:00:32;;;;;;;7.10;4.70;;;;;;;16.48;74.25;98596.56;104854;1271;76524;-25
2022/08/29 01:02:59;;;;;;;8.10;5.00;;;;;;;16.97;72.87;98597.98;104825;1271;75929;-25
2022/08/29 01:05:26;;;;;;;7.40;5.60;;;;;;;17.03;72.23;98597.04;105076;1271;74374;-24
2022/08/29 01:07:54;;;;;;;9.70;6.60;;;;;;;16.89;72.30;98593.73;105036;1272;63251;-24
2022/08/29 01:13:08;;;;;;;11.60;7.30;;;;;;;16.42;73.16;98595.40;104873;1271;75589;-24
2022/08/29 01:15:36;;;;;;;11.50;4.90;;;;;;;16.21;73.43;98600.71;104832;1271;76942;-24
2022/08/29 01:18:03;;;;;;;9.00;5.50;;;;;;;16.56;73.55;98597.30;104938;1271;75310;-24
2022/08/29 01:20:52;;;;;;;6.60;4.60;;;;;;;17.03;71.81;98590.95;104918;1271;62703;-24
2022/08/29 01:23:20;;;;;;;12.40;6.20;;;;;;;17.03;71.73;98594.45;105099;1271;61717;-24
2022/08/29 01:25:49;;;;;;;13.20;6.80;;;;;;;16.82;71.78;98593.70;105081;1271;76604;-24
2022/08/29 01:28:27;;;;;;;10.00;6.80;;;;;;;16.56;72.23;98589.63;104894;1271;75964;-24
2022/08/29 01:31:08;;;;;;;10.10;6.60;;;;;;;16.29;72.96;98590.64;105102;1271;74262;-24
2022/08/29 01:33:37;;;;;;;8.80;6.50;;;;;;;16.05;72.99;98589.21;105143;1271;61121;-24
2022/08/29 01:36:05;;;;;;;8.30;4.90;;;;;;;15.89;73.23;98584.43;105030;1271;63137;-24
2022/08/29 01:38:32;;;;;;;7.70;5.40;;;;;;;16.41;72.75;98584.63;104797;1271;75579;-24
2022/08/29 01:40:59;;;;;;;9.10;5.50;;;;;;;16.99;71.43;98582.11;104844;1271;76070;-23
2022/08/29 01:43:26;;;;;;;11.30;6.00;;;;;;;17.07;70.31;98583.17;104893;1271;74115;-23
2022/08/29 01:45:54;;;;;;;14.20;6.60;;;;;;;16.95;70.40;98583.98;104824;1271;62714;-23
2022/08/29 01:48:21;;;;;;;12.10;6.10;;;;;;;16.75;70.51;98585.55;104867;1271;61964;-24
2022/08/29 01:50:48;;;;;;;9.60;5.90;;;;;;;16.55;70.87;98587.13;105053;1271;76483;-23
2022/08/29 01:53:18;;;;;;;10.10;6.60;;;;;;;16.37;71.46;98586.95;104868;1271;76057;-23
2022/08/29 01:55:45;;;;;;;7.90;4.70;;;;;;;16.28;71.75;98579.27;104863;1271;73110;-23
2022/08/29 01:58:12;;;;;;;7.80;4.50;;;;;;;16.74;71.10;98581.73;104907;1271;61816;-23
2022/08/29 02:00:39;;;;;;;10.00;5.10;;;;;;;17.28;69.99;98579.36;104989;1271;62041;-23
2022/08/29 02:03:07;;;;;;;12.50;6.10;;;;;;;17.25;69.99;98575.83;105067;1271;75132;-23
2022/08/29 02:05:35;;;;;;;8.40;6.30;;;;;;;16.94;70.38;98577.77;105014;1271;76746;-23
2022/08/29 02:08:02;;;;;;;8.00;6.10;;;;;;;16.59;71.02;98575.25;104869;1271;73377;-23
2022/08/29 02:10:29;;;;;;;11.70;6.40;;;;;;;16.27;72.23;98577.82;104891;1271;63067;-23
2022/08/29 02:12:57;;;;;;;14.50;6.50;;;;;;;16.05;72.74;98577.09;104860;1271;61916;-23
2022/08/29 02:15:24;;;;;;;9.50;5.00;;;;;;;15.95;72.66;98579.76;103860;1271;1402061;-23
2022/08/29 02:17:51;;;;;;;10.60;5.10;;;;;;;16.43;72.34;98580.14;105041;1271;77046;-23
2022/08/29 02:20:18;;;;;;;9.30;5.30;;;;;;;17.01;70.63;98581.30;105045;1271;75278;-23
2022/08/29 02:22:46;;;;;;;10.40;6.40;;;;;;;17.13;69.60;98581.74;105095;1271;62036;-23
2022/08/29 02:27:58;;;;;;;12.00;6.60;;;;;;;16.62;70.74;98592.36;105056;1271;76785;-23
2022/08/29 02:30:26;;;;;;;11.30;6.70;;;;;;;16.37;71.37;98592.26;105112;1271;76963;-23
2022/08/29 02:32:53;;;;;;;14.20;6.80;;;;;;;16.17;71.66;98593.05;104970;1271;75752;-23
2022/08/29 02:35:21;;;;;;;9.30;5.10;;;;;;;15.96;71.73;98593.73;105052;1271;64409;-23
2022/08/29 02:37:50;;;;;;;8.40;5.00;;;;;;;16.24;72.55;98593.30;104949;1271;61744;-23
2022/08/29 02:40:17;;;;;;;7.50;5.60;;;;;;;16.65;71.44;98596.02;104907;1271;76555;-23
2022/08/29 02:42:44;;;;;;;8.70;5.70;;;;;;;16.61;71.41;98596.26;105121;1271;76964;-24
2022/08/29 02:45:11;;;;;;;14.00;6.70;;;;;;;16.37;71.96;98597.17;105097;1271;75100;-23
2022/08/29 02:47:40;;;;;;;10.10;6.90;;;;;;;16.09;72.59;98598.34;105075;1271;63251;-23
2022/08/29 02:50:08;;;;;;;10.70;6.90;;;;;;;15.83;72.82;98603.83;104877;1271;62738;-23
2022/08/29 02:52:41;;;;;;;11.40;6.10;;;;;;;15.57;73.30;98601.36;104716;1271;76731;-23
2022/08/29 02:55:10;;;;;;;10.10;5.00;;;;;;;15.37;74.40;98601.84;104956;1271;76905;-25
2022/08/29 02:57:37;;;;;;;8.00;4.50;;;;;;;15.81;74.82;98599.20;104950;1271;74379;-24
2022/08/29 03:00:07;;;;;;;6.10;5.00;;;;;;;16.34;73.61;98599.95;105121;1271;62143;-24
2022/08/29 03:02:34;;;;;;;9.50;6.20;;;;;;;16.42;72.85;98596.94;104868;1271;61627;-24
2022/08/29 03:05:01;;;;;;;11.90;6.10;;;;;;;16.26;72.88;98594.18;104959;1271;76263;-24
2022/08/29 03:07:28;;;;;;;9.90;6.40;;;;;;;16.02;73.23;98590.86;105045;1271;75034;-24
2022/08/29 03:09:56;;;;;;;12.70;7.00;;;;;;;15.78;72.92;98592.08;104951;1271;74217;-24
2022/08/29 03:12:23;;;;;;;8.80;4.20;;;;;;;15.53;74.12;98595.99;105083;1271;62746;-24
2022/08/29 03:14:54;;;;;;;10.40;5.10;;;;;;;15.75;74.16;98599.05;105128;1271;62032;-24
2022/08/29 03:17:21;;;;;;;9.70;5.60;;;;;;;16.13;73.43;98599.83;105113;1271;75425;-24
2022/08/29 03:19:48;;;;;;;8.20;5.80;;;;;;;16.19;73.19;98600.04;105125;1271;74929;-24
2022/08/29 03:22:15;;;;;;;13.10;6.80;;;;;;;16.03;72.95;98600.11;105007;1271;74462;-24
2022/08/29 03:24:42;;;;;;;15.50;6.70;;;;;;;15.77;73.28;98603.61;104953;1271;61998;-24
2022/08/29 03:27:09;;;;;;;11.50;7.00;;;;;;;15.51;73.51;98607.52;104949;1271;62872;-24
2022/08/29 03:29:37;;;;;;;8.60;4.40;;;;;;;15.28;74.38;98609.41;104902;1271;76866;-24
2022/08/29 03:32:04;;;;;;;10.80;5.40;;;;;;;15.65;74.78;98605.74;105027;1271;77209;-24
2022/08/29 03:34:31;;;;;;;11.30;6.20;;;;;;;16.16;73.85;98606.55;105056;1271;75588;-24
2022/08/29 03:36:58;;;;;;;10.90;6.60;;;;;;;16.25;73.15;98609.56;104882;1271;61798;-24
2022/08/29 03:39:26;;;;;;;12.60;6.60;;;;;;;16.14;73.09;98607.05;104878;1271;61144;-24
2022/08/29 03:43:21;;;;;;;9.80;6.80;;;;;;;15.96;73.29;98605.91;101646;1310;600892;-23
2022/08/29 03:45:49;;;;;;;9.00;5.80;;;;;;;15.84;73.20;98604.55;103893;1287;61990;-23
2022/08/29 03:48:16;;;;;;;6.20;4.40;;;;;;;15.79;73.22;98608.25;104417;1285;62021;-23
2022/08/29 03:50:43;;;;;;;9.00;5.30;;;;;;;16.32;73.09;98610.98;104346;1284;74997;-23
2022/08/29 03:53:10;;;;;;;11.10;5.50;;;;;;;17.00;71.41;98613.00;103876;1287;77017;-23
2022/08/29 03:55:38;;;;;;;9.70;6.40;;;;;;;17.23;70.79;98616.82;104361;1284;74114;-23
2022/08/29 03:58:05;;;;;;;11.90;5.80;;;;;;;17.23;70.37;98622.35;103223;1284;1686820;-23
2022/08/29 04:00:32;;;;;;;17.00;6.60;;;;;;;17.12;69.80;98625.21;104439;1284;63334;-22
2022/08/29 04:02:59;;;;;;;14.40;6.90;;;;;;;17.05;69.94;98623.36;104458;1281;75193;-23
2022/08/29 04:05:27;;;;;;;11.60;6.80;;;;;;;17.07;69.94;98626.96;104280;1281;77078;-23
2022/08/29 04:07:56;;;;;;;6.20;4.60;;;;;;;17.07;70.23;98629.39;104213;1283;75355;-23
2022/08/29 04:10:27;;;;;;;10.60;5.00;;;;;;;17.65;69.88;98629.59;104200;1287;62778;-23
2022/08/29 04:12:55;;;;;;;8.20;5.10;;;;;;;18.36;68.03;98632.45;104134;1284;63306;-23
2022/08/29 04:15:23;;;;;;;12.00;6.10;;;;;;;18.59;67.92;98635.69;104454;1284;74811;-23
2022/08/29 04:17:52;;;;;;;10.50;6.50;;;;;;;18.57;67.51;98637.14;104214;1284;77050;-23
2022/08/29 04:20:21;;;;;;;10.30;6.70;;;;;;;18.33;67.77;98634.41;104339;1284;75491;-23
2022/08/29 04:22:52;;;;;;;10.00;6.70;;;;;;;18.28;69.98;98630.79;103903;1284;63058;-23
2022/08/29 04:25:20;;;;;;;9.60;6.40;;;;;;;18.24;69.85;98631.39;104052;1287;62028;-22
2022/08/29 04:27:48;;;;;;;7.00;4.80;;;;;;;18.12;70.20;98636.16;104007;1286;75488;-23
2022/08/29 04:30:17;;;;;;;12.30;5.80;;;;;;;18.18;68.67;98642.30;104432;1284;75956;-23
2022/08/29 04:32:44;;;;;;;13.40;7.10;;;;;;;18.35;67.96;98641.11;104264;1286;73579;-23
2022/08/29 04:35:12;;;;;;;10.80;6.00;;;;;;;18.30;68.16;98637.17;104409;1284;62783;-23
2022/08/29 04:37:39;;;;;;;11.10;6.90;;;;;;;18.18;68.46;98629.62;104288;1284;63173;-23
2022/08/29 04:40:08;;;;;;;12.20;7.30;;;;;;;18.03;68.76;98631.47;104001;1286;75837;-23
2022/08/29 04:42:36;;;;;;;20.70;13.10;;;;;;;17.91;69.37;98625.69;104323;1284;77034;-23
2022/08/29 04:45:05;;;;;;;10.10;7.20;;;;;;;17.83;69.41;98628.31;104163;1287;73320;-23
2022/08/29 04:47:35;;;;;;;9.70;5.70;;;;;;;17.72;70.14;98629.09;104032;1287;64664;-23
2022/08/29 04:50:04;;;;;;;9.40;5.70;;;;;;;18.13;69.99;98628.86;104168;1285;63929;-22
2022/08/29 04:52:31;;;;;;;13.50;5.80;;;;;;;18.63;68.21;98625.55;104483;1283;76126;-23
2022/08/29 04:54:59;;;;;;;11.30;5.70;;;;;;;18.94;67.56;98626.49;104543;1281;75893;-23
2022/08/29 04:57:26;;;;;;;11.10;6.10;;;;;;;19.20;66.79;98622.99;104238;1283;74095;-24
2022/08/29 04:59:54;;;;;;;12.10;6.60;;;;;;;19.32;66.76;98622.48;104363;1281;61810;-24
2022/08/29 05:02:23;;;;;;;15.50;7.10;;;;;;;19.34;67.43;98627.27;104344;1281;61972;-25
2022/08/29 05:04:51;;;;;;;12.30;6.70;;;;;;;19.21;67.69;98632.17;104520;1281;74526;-26
2022/08/29 05:07:19;;;;;;;9.80;6.50;;;;;;;19.38;67.05;98641.32;104399;1281;77033;-23
2022/08/29 05:09:48;;;;;;;11.20;6.20;;;;;;;19.48;66.83;98636.09;104222;1281;75169;-24
2022/08/29 05:12:15;;;;;;;8.50;5.00;;;;;;;19.52;67.40;98638.98;104200;1281;63618;-24
2022/08/29 05:14:42;;;;;;;9.30;4.60;;;;;;;20.12;66.81;98640.72;104494;1281;62014;-25
2022/08/29 05:17:10;;;;;;;9.30;5.10;;;;;;;20.65;64.63;98641.16;104554;1281;75448;-25
2022/08/29 05:19:37;;;;;;;8.20;5.50;;;;;;;20.78;64.50;98642.60;104542;1281;77077;-24
2022/08/29 05:22:15;;;;;;;10.30;6.60;;;;;;;20.72;65.09;98642.33;104556;1275;75227;-24
2022/08/29 05:24:42;;;;;;;12.20;6.30;;;;;;;20.57;65.10;98640.19;104333;1274;61856;-24
2022/08/29 05:27:11;;;;;;;10.50;5.70;;;;;;;20.37;65.77;98643.17;104534;1277;62984;-24
2022/08/29 05:29:40;;;;;;;8.80;6.30;;;;;;;20.26;65.99;98646.66;104599;1274;74757;-24
2022/08/29 05:32:08;;;;;;;9.90;6.00;;;;;;;20.20;66.42;98645.53;104599;1274;77045;-24
2022/08/29 05:34:35;;;;;;;8.50;6.30;;;;;;;20.08;66.70;98646.69;104724;1275;75613;-24
2022/08/29 05:37:05;;;;;;;8.70;5.00;;;;;;;20.11;67.44;98648.86;104607;1274;64680;-22
2022/08/29 05:39:33;;;;;;;10.60;5.20;;;;;;;20.64;65.94;98646.05;104649;1274;61855;-25
2022/08/29 05:42:00;;;;;;;7.40;5.10;;;;;;;21.16;64.71;98643.96;104533;1277;75817;-25
2022/08/29 05:44:28;;;;;;;8.60;5.20;;;;;;;21.28;64.36;98648.32;104663;1277;76841;-23
2022/08/29 05:47:02;;;;;;;13.70;6.10;;;;;;;21.36;63.88;98639.85;104534;1277;75162;-24
2022/08/29 05:49:29;;;;;;;11.70;6.20;;;;;;;21.37;62.95;98638.98;104449;1277;62064;-24
2022/08/29 05:51:56;;;;;;;10.10;5.90;;;;;;;21.36;63.34;98639.84;104562;1277;62841;-25
2022/08/29 05:54:23;;;;;;;9.10;5.00;;;;;;;21.41;64.22;98640.08;104628;1277;75173;-25
2022/08/29 05:56:56;;;;;;;32.20;7.80;;;;;;;21.45;64.35;98635.43;104630;1278;76024;-24
2022/08/29 05:59:23;;;;;;;9.20;5.30;;;;;;;21.52;64.60;98642.27;104627;1277;74398;-24
2022/08/29 06:01:50;;;;;;;9.40;5.00;;;;;;;21.56;63.82;98640.77;104559;1277;61805;-25
2022/08/29 06:04:17;;;;;;;10.10;5.00;;;;;;;21.61;63.69;98641.49;104543;1277;63051;-23
2022/08/29 06:06:44;;;;;;;10.60;5.70;;;;;;;21.60;63.53;98641.58;104536;1277;74988;-24
2022/08/29 06:09:12;;;;;;;9.20;5.70;;;;;;;21.70;63.95;98646.01;104533;1277;75952;-24
2022/08/29 06:11:39;;;;;;;13.50;6.20;;;;;;;21.78;64.12;98645.30;104358;1277;74319;-24
2022/08/29 06:14:06;;;;;;;13.50;4.10;;;;;;;21.90;64.49;98646.61;104627;1276;63651;-24
2022/08/29 06:16:33;;;;;;;5.90;4.40;;;;;;;22.51;62.33;98651.73;104423;1276;61991;-24
2022/08/29 06:19:01;;;;;;;8.90;4.60;;;;;;;22.95;60.33;98651.92;104524;1277;74865;-24
2022/08/29 06:21:28;;;;;;;10.40;4.70;;;;;;;23.02;58.83;98651.46;104681;1277;76754;-24
2022/08/29 06:23:55;;;;;;;9.20;4.80;;;;;;;22.97;59.69;98655.12;104599;1277;75293;-24
2022/08/29 06:26:22;;;;;;;13.90;5.40;;;;;;;22.96;59.50;98657.99;104542;1277;61992;-24
2022/08/29 06:28:49;;;;;;;7.00;4.70;;;;;;;22.94;59.62;98656.34;104699;1277;61988;-24
2022/08/29 06:31:21;;;;;;;7.80;4.70;;;;;;;22.94;60.40;98655.73;104562;1277;75839;-24
2022/08/29 06:33:50;;;;;;;9.00;4.70;;;;;;;22.97;59.75;98656.44;104543;1277;76635;-23
2022/08/29 06:36:17;;;;;;;7.90;4.60;;;;;;;23.02;60.23;98658.52;104599;1277;75364;-23
2022/08/29 06:38:44;;;;;;;10.30;5.00;;;;;;;23.12;59.64;98656.86;104681;1277;61950;-24
2022/08/29 06:41:13;;;;;;;6.60;5.00;;;;;;;23.19;58.15;98649.27;104658;1275;63499;-25
2022/08/29 06:43:40;;;;;;;12.80;4.40;;;;;;;23.23;58.90;98644.00;104680;1275;75784;-25
2022/08/29 06:46:08;;;;;;;8.40;5.10;;;;;;;23.35;59.01;98644.20;104726;1274;76820;-23
2022/08/29 06:48:35;;;;;;;67.30;7.80;;;;;;;23.47;58.38;98645.05;104851;1274;75491;-23
2022/08/29 06:51:02;;;;;;;9.30;4.60;;;;;;;23.51;58.58;98649.71;104769;1275;63392;-23
2022/08/29 06:53:29;;;;;;;9.20;4.60;;;;;;;23.56;57.94;98653.48;104710;1274;63116;-23
2022/08/29 06:56:05;;;;;;;9.30;4.90;;;;;;;23.62;57.73;98653.86;104646;1274;74791;-23
2022/08/29 06:58:37;;;;;;;6.80;4.50;;;;;;;23.80;58.32;98646.31;104346;1274;77054;-23
2022/08/29 07:01:10;;;;;;;9.20;4.60;;;;;;;23.94;56.93;98646.16;104566;1274;75330;-25
2022/08/29 07:03:37;;;;;;;7.90;4.80;;;;;;;23.93;57.23;98647.55;104208;1274;61949;-23
2022/08/29 07:06:05;;;;;;;88.10;8.20;;;;;;;23.88;56.81;98646.91;104662;1274;63499;-23
2022/08/29 07:08:32;;;;;;;8.10;4.60;;;;;;;23.93;57.85;98647.96;104672;1275;75726;-24
2022/08/29 07:11:00;;;;;;;10.90;5.20;;;;;;;24.06;57.23;98648.98;104620;1274;76071;-24
2022/08/29 07:13:27;;;;;;;7.80;5.00;;;;;;;24.04;57.57;98648.44;104455;1275;75671;-23
2022/08/29 07:15:54;;;;;;;11.10;5.20;;;;;;;24.06;57.54;98652.64;104638;1274;63048;-23
2022/08/29 07:18:22;;;;;;;11.20;4.70;;;;;;;24.18;57.90;98651.34;104858;1274;63023;-23
2022/08/29 07:20:49;;;;;;;6.90;4.50;;;;;;;24.38;57.00;98654.47;104741;1274;74458;-23
2022/08/29 07:23:16;;;;;;;8.20;5.10;;;;;;;24.39;56.60;98658.27;104763;1274;76138;-23
2022/08/29 07:25:43;;;;;;;8.00;4.50;;;;;;;24.33;56.85;98656.27;104744;1274;75761;-23
2022/08/29 07:28:10;;;;;;;7.30;4.50;;;;;;;24.49;56.69;98655.11;104855;1271;63184;-23
2022/08/29 07:30:39;;;;;;;28.50;5.80;;;;;;;24.58;56.75;98657.07;104926;1272;62943;-23
2022/08/29 07:33:06;;;;;;;95.50;9.70;;;;;;;24.70;55.92;98663.34;104757;1274;74674;-23
2022/08/29 07:35:33;;;;;;;6.90;4.70;;;;;;;24.80;55.56;98658.71;104788;1271;76979;-23
2022/08/29 07:38:00;;;;;;;12.30;4.80;;;;;;;24.92;55.69;98659.80;104910;1271;74164;-23
2022/08/29 07:40:27;;;;;;;7.70;5.00;;;;;;;25.00;55.45;98659.67;104802;1271;63058;-24
2022/08/29 07:42:55;;;;;;;166.00;13.80;;;;;;;25.14;56.63;98664.74;105164;1271;61052;-23
2022/08/29 07:45:22;;;;;;;7.90;5.10;;;;;;;25.31;54.76;98667.34;105084;1271;74599;-23
2022/08/29 07:47:49;;;;;;;10.50;4.90;;;;;;;25.49;53.60;98672.50;104924;1271;76746;-23
2022/08/29 07:50:16;;;;;;;9.90;4.80;;;;;;;25.62;54.21;98674.98;105057;1271;75391;-23
2022/08/29 07:52:43;;;;;;;7.50;4.60;;;;;;;25.85;53.63;98678.88;105078;1271;62076;-23
2022/08/29 07:55:10;;;;;;;9.70;5.10;;;;;;;26.06;53.61;98676.86;104966;1272;62834;-23
2022/08/29 07:57:38;;;;;;;9.90;4.90;;;;;;;26.22;52.33;98681.10;104853;1271;74883;-23
2022/08/29 08:00:10;;;;;;;13.50;5.10;;;;;;;26.37;52.06;98677.49;105031;1272;77026;-23
2022/08/29 08:02:38;;;;;;;9.10;5.30;;;;;;;26.42;52.32;98676.73;104761;1272;75759;-23
2022/08/29 08:05:06;;;;;;;11.70;5.30;;;;;;;26.50;51.93;98679.64;104750;1271;61909;-23
2022/08/29 08:07:34;;;;;;;7.30;4.90;;;;;;;26.73;52.26;98678.02;104664;1271;60986;-23
2022/08/29 08:10:07;;;;;;;10.00;5.50;;;;;;;26.89;51.06;98680.45;104942;1271;76761;-23
2022/08/29 08:12:34;;;;;;;12.80;6.80;;;;;;;26.99;51.37;98681.94;104953;1271;76933;-23
2022/08/29 08:15:02;;;;;;;15.30;7.40;;;;;;;27.05;50.88;98688.29;105023;1271;75365;-23
2022/08/29 08:17:29;;;;;;;15.60;8.30;;;;;;;26.94;50.87;98683.54;104912;1271;61969;-23
2022/08/29 08:19:56;;;;;;;13.80;7.10;;;;;;;27.19;50.66;98687.30;105063;1271;62164;-24
2022/08/29 08:22:23;;;;;;;10.70;5.20;;;;;;;27.37;49.80;98684.63;105093;1271;76859;-23
2022/08/29 08:24:50;;;;;;;9.70;4.90;;;;;;;27.26;49.49;98689.06;105082;1271;76408;-23
2022/08/29 08:27:17;;;;;;;11.20;5.00;;;;;;;27.05;49.81;98692.52;104792;1271;75377;-23
2022/08/29 08:29:44;;;;;;;8.40;4.50;;;;;;;27.15;49.53;98691.95;104761;1271;61917;-23
2022/08/29 08:32:12;;;;;;;7.90;4.00;;;;;;;27.42;49.49;98687.96;104837;1271;61025;-23
2022/08/29 08:34:39;;;;;;;7.10;4.10;;;;;;;27.52;48.43;98690.91;105051;1271;76288;-25
2022/08/29 08:37:06;;;;;;;9.20;4.60;;;;;;;27.57;47.43;98686.02;104828;1271;75828;-25
2022/08/29 08:39:34;;;;;;;8.00;4.60;;;;;;;27.54;47.37;98689.55;104947;1271;75789;-22
2022/08/29 08:42:05;;;;;;;8.50;4.60;;;;;;;27.53;46.63;98687.63;104650;1274;63000;-24
2022/08/29 08:44:38;;;;;;;9.00;4.90;;;;;;;27.61;47.26;98690.77;104834;1271;62267;-22
2022/08/29 08:47:06;;;;;;;8.60;4.40;;;;;;;27.69;47.76;98689.88;104923;1271;76764;-25
2022/08/29 08:49:41;;;;;;;8.30;4.60;;;;;;;27.96;48.57;98695.09;104889;1271;77176;-23
2022/08/29 08:52:16;;;;;;;8.10;4.60;;;;;;;28.34;46.82;98694.12;105069;1274;74160;-24
2022/08/29 08:54:52;;;;;;;10.80;4.80;;;;;;;28.40;47.05;98694.30;104860;1271;61863;-24
2022/08/29 08:57:20;;;;;;;9.60;5.20;;;;;;;28.50;45.66;98691.73;104903;1271;63099;-23
2022/08/29 08:59:57;;;;;;;12.60;4.50;;;;;;;28.36;44.55;98692.95;104641;1271;75605;-24
2022/08/29 09:02:47;;;;;;;8.70;4.40;;;;;;;28.27;44.92;98692.17;104624;1271;76994;-23
2022/08/29 09:05:27;;;;;;;10.30;4.30;;;;;;;28.18;45.42;98692.93;104795;1271;74368;-24
2022/08/29 09:08:41;;;;;;;6.00;4.30;;;;;;;28.04;46.44;98692.09;104631;1271;63449;-24
2022/08/29 09:11:14;;;;;;;10.90;4.30;;;;;;;27.82;47.63;98694.53;104357;1277;61723;-22
2022/08/29 09:14:00;;;;;;;11.70;4.40;;;;;;;27.73;47.43;98695.00;104782;1271;76633;-23
2022/08/29 09:16:37;;;;;;;13.90;4.50;;;;;;;27.64;48.25;98694.34;104981;1271;76210;-26
2022/08/29 09:19:05;;;;;;;8.60;4.80;;;;;;;27.58;49.92;98696.84;104830;1271;75434;-24
2022/08/29 09:21:34;;;;;;;8.10;4.50;;;;;;;27.60;50.20;98692.84;104787;1271;62888;-25
2022/08/29 09:24:11;;;;;;;11.60;5.20;;;;;;;27.43;49.86;98696.02;104857;1271;61785;-25
2022/08/29 09:26:39;;;;;;;9.80;4.80;;;;;;;27.12;50.38;98701.23;104619;1271;75284;-25
2022/08/29 09:29:08;;;;;;;9.00;4.50;;;;;;;26.90;50.87;98702.81;105104;1274;76060;-26
2022/08/29 09:31:36;;;;;;;12.10;5.00;;;;;;;26.76;51.43;98708.00;105016;1274;74484;-23
2022/08/29 09:34:08;;;;;;;13.00;4.50;;;;;;;26.64;51.65;98713.05;104903;1271;61941;-23
2022/08/29 09:36:39;;;;;;;9.10;5.40;;;;;;;26.47;52.31;98715.42;104816;1274;63021;-23
2022/08/29 09:39:30;;;;;;;12.30;6.50;;;;;;;26.42;52.08;98713.41;104884;1271;75723;-24
2022/08/29 09:42:12;;;;;;;9.40;5.20;;;;;;;26.22;52.52;98713.58;104824;1271;76024;-23
2022/08/29 09:44:40;;;;;;;6.50;4.70;;;;;;;26.19;52.34;98718.54;104697;1271;75276;-23
2022/08/29 09:47:11;;;;;;;9.20;4.50;;;;;;;26.31;52.05;98720.39;104737;1271;61930;-23
2022/08/29 09:49:40;;;;;;;7.10;4.80;;;;;;;26.48;50.69;98719.59;104657;1271;61963;-24
2022/08/29 09:52:25;;;;;;;10.50;4.80;;;;;;;26.55;50.25;98714.39;104782;1271;74297;-23
2022/08/29 09:54:52;;;;;;;9.50;4.70;;;;;;;26.63;49.52;98716.29;105116;1271;75700;-23
2022/08/29 09:57:21;;;;;;;38.10;5.40;;;;;;;26.69;50.68;98712.34;104893;1271;75674;-23
2022/08/29 10:00:05;;;;;;;15.50;5.30;;;;;;;26.89;50.19;98717.30;104730;1271;62998;-23
2022/08/29 10:02:42;;;;;;;10.80;4.70;;;;;;;27.14;50.71;98719.06;104850;1271;62861;-23
2022/08/29 10:05:33;;;;;;;8.50;4.80;;;;;;;27.51;51.15;98719.29;105048;1272;76606;-23
2022/08/29 10:08:04;;;;;;;8.30;4.20;;;;;;;27.72;49.38;98718.61;105064;1271;77083;-23
2022/08/29 10:10:34;;;;;;;11.80;4.80;;;;;;;27.91;48.78;98717.70;104684;1271;75226;-23
2022/08/29 10:13:10;;;;;;;10.40;5.10;;;;;;;28.51;47.84;98713.09;104689;1271;61999;-24
2022/08/29 10:15:50;;;;;;;12.30;5.00;;;;;;;28.90;44.66;98713.07;105047;1271;62050;-23
2022/08/29 10:18:58;;;;;;;12.90;5.50;;;;;;;29.09;45.30;98711.64;104814;1271;75286;-23
2022/08/29 10:21:48;;;;;;;10.80;5.40;;;;;;;29.23;44.94;98711.52;104845;1271;76900;-23
2022/08/29 10:24:47;;;;;;;12.10;4.80;;;;;;;29.36;44.14;98712.17;105134;1271;75473;-23
2022/08/29 10:27:27;;;;;;;9.20;4.60;;;;;;;29.51;44.71;98707.46;105095;1271;63114;-24
2022/08/29 10:30:10;;;;;;;13.90;5.50;;;;;;;29.64;43.73;98706.25;104843;1271;61974;-24
2022/08/29 10:32:47;;;;;;;8.40;4.60;;;;;;;29.73;43.09;98708.34;104762;1271;76306;-24
2022/08/29 10:35:15;;;;;;;8.50;4.20;;;;;;;29.72;42.93;98705.27;105050;1271;76150;-24
2022/08/29 10:37:58;;;;;;;8.70;3.90;;;;;;;29.85;43.17;98706.95;105091;1271;75795;-24
2022/08/29 10:40:32;;;;;;;10.70;4.80;;;;;;;30.07;42.34;98705.79;104847;1271;62868;-24
2022/08/29 10:43:32;;;;;;;10.90;4.80;;;;;;;30.13;43.05;98709.23;105020;1271;63013;-24
2022/08/29 10:46:18;;;;;;;9.70;4.80;;;;;;;30.11;43.22;98711.33;105061;1271;76411;-24
2022/08/29 10:48:54;;;;;;;7.10;4.20;;;;;;;30.13;43.70;98711.02;105088;1271;77102;-24
2022/08/29 10:51:30;;;;;;;16.00;4.90;;;;;;;30.03;42.56;98710.23;104850;1271;74356;-24
2022/08/29 10:54:25;;;;;;;7.70;4.80;;;;;;;29.88;42.86;98709.02;104853;1274;61884;-24
2022/08/29 10:56:52;;;;;;;7.20;4.30;;;;;;;29.64;43.17;98711.12;105038;1274;61840;-23
2022/08/29 10:59:23;;;;;;;13.10;4.40;;;;;;;29.36;43.78;98711.16;105068;1271;76356;-24
2022/08/29 11:01:59;;;;;;;11.60;4.70;;;;;;;29.47;45.14;98708.35;105011;1271;76052;-23
2022/08/29 11:04:34;;;;;;;7.10;4.20;;;;;;;29.41;44.51;98708.35;104706;1271;75142;-23
2022/08/29 11:07:12;;;;;;;10.90;4.80;;;;;;;29.11;44.44;98706.28;104696;1271;63150;-24
2022/08/29 11:09:43;;;;;;;7.40;4.40;;;;;;;29.00;45.25;98711.92;104633;1271;61198;-23
2022/08/29 11:12:14;;;;;;;13.70;5.00;;;;;;;28.86;45.34;98714.48;104646;1271;76924;-23
2022/08/29 11:15:04;;;;;;;14.40;5.10;;;;;;;28.87;45.21;98713.52;104833;1271;76989;-24
2022/08/29 11:17:34;;;;;;;11.10;4.70;;;;;;;28.53;47.01;98718.63;105006;1271;74926;-24
2022/08/29 11:20:17;;;;;;;12.00;5.40;;;;;;;28.82;46.87;98715.02;104789;1271;61713;-24
2022/08/29 11:22:51;;;;;;;12.00;4.90;;;;;;;28.86;46.61;98713.84;104810;1271;61959;-24
2022/08/29 11:25:19;;;;;;;6.40;4.50;;;;;;;28.80;46.16;98711.11;104774;1271;75527;-24
2022/08/29 11:28:13;;;;;;;9.30;4.80;;;;;;;28.73;45.67;98710.27;104663;1274;76810;-24
2022/08/29 11:30:49;;;;;;;11.10;4.90;;;;;;;28.20;47.05;98719.95;105109;1271;75614;-24
2022/08/29 11:33:38;;;;;;;9.20;4.80;;;;;;;27.69;48.24;98721.31;105087;1271;61362;-24
2022/08/29 11:36:33;;;;;;;6.90;4.50;;;;;;;27.54;48.15;98723.46;105055;1271;61987;-25
2022/08/29 11:39:22;;;;;;;8.40;4.20;;;;;;;27.82;48.86;98720.58;105057;1271;76830;-24
2022/08/29 11:41:50;;;;;;;9.10;5.00;;;;;;;28.13;48.25;98718.45;105056;1271;76186;-24
2022/08/29 11:44:30;;;;;;;9.90;4.60;;;;;;;28.09;47.94;98722.66;105028;1271;74276;-24